Time;durP1;ratioP1;P1;durP2;ratioP2;P2;SDS_P1;SDS_P2;PMS_P1;PMS_P2;Temp;Humidity;BMP_temperature;BMP_pressure;BME280_temperature;BME280_humidity;BME280_pressure;Samples;Min_cycle;Max_cycle;Signal;HPM_P1;HPM_P2
2022/03/28 00:00:40;;;;;;;20.92;10.02;;;8.90;99.90;;;;;;4834831;29;20026;-91
2022/03/28 00:03:07;;;;;;;23.15;10.00;;;8.90;99.90;;;;;;4831258;29;20041;-92
2022/03/28 00:05:36;;;;;;;19.27;10.90;;;8.90;99.90;;;;;;4813845;29;20030;-92
2022/03/28 00:08:02;;;;;;;22.02;10.50;;;8.80;99.90;;;;;;4823751;29;20026;-93
2022/03/28 00:10:28;;;;;;;17.60;9.23;;;8.90;99.90;;;;;;4818988;29;20035;-91
2022/03/28 00:12:54;;;;;;;15.77;8.68;;;8.90;99.90;;;;;;4817850;29;20133;-91
2022/03/28 00:15:20;;;;;;;15.18;8.95;;;8.90;99.90;;;;;;4833790;29;20038;-92
2022/03/28 00:17:47;;;;;;;12.48;8.20;;;8.90;99.90;;;;;;4819508;29;20038;-91
2022/03/28 00:20:16;;;;;;;14.23;7.32;;;8.90;99.90;;;;;;4834074;29;20087;-90
2022/03/28 00:22:42;;;;;;;10.88;6.50;;;9.00;99.90;;;;;;4823423;29;20021;-91
2022/03/28 00:25:10;;;;;;;10.93;6.57;;;9.00;99.90;;;;;;4849358;29;20047;-92
2022/03/28 00:27:37;;;;;;;10.50;6.45;;;9.00;99.90;;;;;;4845661;29;20037;-91
2022/03/28 00:30:08;;;;;;;9.60;6.70;;;9.00;99.90;;;;;;4853939;29;20026;-92
2022/03/28 00:32:34;;;;;;;13.40;6.70;;;9.00;99.90;;;;;;4836165;29;20109;-91
2022/03/28 00:35:01;;;;;;;8.82;6.47;;;9.00;99.90;;;;;;4833598;29;20122;-92
2022/03/28 00:37:27;;;;;;;11.05;6.38;;;9.00;99.90;;;;;;4829680;29;20022;-91
2022/03/28 00:39:53;;;;;;;9.98;6.82;;;9.00;99.90;;;;;;4828752;29;20034;-90
2022/03/28 00:42:19;;;;;;;9.02;6.38;;;9.00;99.90;;;;;;4828372;29;20034;-92
2022/03/28 00:44:45;;;;;;;10.85;6.93;;;9.00;99.90;;;;;;4827874;29;20018;-92
2022/03/28 00:47:10;;;;;;;9.77;6.43;;;9.10;99.90;;;;;;4827977;29;20097;-91
2022/03/28 00:49:36;;;;;;;11.50;6.80;;;9.10;99.90;;;;;;4827737;29;20577;-90
2022/03/28 00:52:03;;;;;;;10.10;6.20;;;9.10;99.90;;;;;;4828434;29;20121;-91
2022/03/28 00:54:29;;;;;;;10.77;6.78;;;9.10;99.90;;;;;;4828994;29;20038;-91
2022/03/28 00:56:55;;;;;;;9.70;6.50;;;9.10;99.90;;;;;;4833023;29;20113;-91
2022/03/28 00:59:21;;;;;;;9.80;6.30;;;9.10;99.90;;;;;;4835280;29;20101;-91
2022/03/28 01:01:47;;;;;;;11.75;7.07;;;9.10;99.90;;;;;;4849320;29;20053;-92
2022/03/28 01:04:13;;;;;;;7.53;6.10;;;9.00;99.90;;;;;;4849124;29;20029;-90
2022/03/28 01:06:39;;;;;;;9.77;5.97;;;9.00;99.90;;;;;;4844999;29;20038;-91
2022/03/28 01:09:06;;;;;;;10.60;6.47;;;9.00;99.90;;;;;;4833434;29;20030;-93
2022/03/28 01:11:35;;;;;;;10.05;6.25;;;9.00;99.90;;;;;;4832784;29;20076;-92
2022/03/28 01:14:01;;;;;;;9.38;6.55;;;9.00;99.90;;;;;;4832411;29;20499;-92
2022/03/28 01:18:05;;;;;;;13.35;7.60;;;9.00;99.90;;;;;;4817052;29;20038;-91
2022/03/28 01:19:17;;;;;;;20.73;6.57;;;9.10;99.90;;;;;;4845655;29;20070;-91
2022/03/28 01:21:43;;;;;;;11.98;6.80;;;9.10;99.90;;;;;;4829621;29;20569;-90
2022/03/28 01:24:09;;;;;;;9.73;6.80;;;9.00;99.90;;;;;;4829970;29;20033;-91
2022/03/28 01:26:35;;;;;;;10.02;6.70;;;8.90;99.90;;;;;;4828850;29;20030;-90
2022/03/28 01:29:01;;;;;;;9.00;6.18;;;8.90;99.90;;;;;;4829541;29;20026;-91
2022/03/28 01:31:27;;;;;;;8.98;6.57;;;8.90;99.90;;;;;;4829155;29;20063;-91
2022/03/28 01:33:53;;;;;;;10.20;6.95;;;8.90;99.90;;;;;;4829248;29;20046;-92
2022/03/28 01:36:26;;;;;;;10.75;6.80;;;8.90;99.90;;;;;;4829182;29;20033;-90
2022/03/28 01:38:52;;;;;;;8.98;6.40;;;8.90;99.90;;;;;;4813830;29;20069;-92
2022/03/28 01:41:18;;;;;;;10.18;6.95;;;8.90;99.90;;;;;;4828967;29;20025;-91
2022/03/28 01:43:43;;;;;;;11.15;6.38;;;8.90;99.90;;;;;;4828767;29;20034;-91
2022/03/28 01:46:09;;;;;;;10.02;6.47;;;8.90;99.90;;;;;;4828632;29;20037;-91
2022/03/28 01:48:35;;;;;;;9.88;6.90;;;9.00;99.90;;;;;;4828452;29;20064;-91
2022/03/28 01:51:00;;;;;;;9.73;7.40;;;9.00;99.90;;;;;;4828094;29;20045;-91
2022/03/28 01:53:26;;;;;;;9.88;6.88;;;9.00;99.90;;;;;;4827734;29;20046;-91
2022/03/28 01:55:53;;;;;;;9.35;6.30;;;9.00;99.90;;;;;;4828379;29;20125;-91
2022/03/28 01:58:19;;;;;;;11.55;6.72;;;9.10;99.90;;;;;;4827903;29;20583;-92
2022/03/28 02:00:44;;;;;;;9.45;6.22;;;9.10;99.90;;;;;;4828046;29;20102;-92
2022/03/28 02:03:10;;;;;;;9.23;6.20;;;9.10;99.90;;;;;;4828272;29;20029;-91
2022/03/28 02:05:36;;;;;;;9.82;6.35;;;9.00;99.90;;;;;;4828147;29;20068;-92
2022/03/28 02:08:02;;;;;;;12.27;7.03;;;9.00;99.90;;;;;;4828204;29;20056;-92
2022/03/28 02:10:28;;;;;;;9.55;6.68;;;9.00;99.90;;;;;;4828231;29;20034;-92
2022/03/28 02:12:54;;;;;;;9.40;6.20;;;9.00;99.90;;;;;;4828255;29;20056;-92
2022/03/28 02:15:21;;;;;;;9.63;6.40;;;9.00;99.90;;;;;;4829598;29;20102;-92
2022/03/28 02:17:47;;;;;;;8.75;6.43;;;8.90;99.90;;;;;;4831034;29;20561;-92
2022/03/28 02:20:15;;;;;;;9.23;6.47;;;8.90;99.90;;;;;;4828564;29;20030;-92
2022/03/28 02:22:42;;;;;;;9.63;6.40;;;8.90;99.90;;;;;;4828536;29;20026;-92
2022/03/28 02:25:10;;;;;;;11.35;7.47;;;8.90;99.90;;;;;;4828483;29;20504;-91
2022/03/28 02:27:37;;;;;;;11.73;7.10;;;8.80;99.90;;;;;;4812254;29;20090;-92
2022/03/28 02:30:07;;;;;;;10.13;6.95;;;8.80;99.90;;;;;;4829037;29;20026;-91
2022/03/28 02:32:35;;;;;;;10.80;7.07;;;8.90;99.90;;;;;;4828613;29;20037;-92
2022/03/28 02:35:01;;;;;;;9.68;6.82;;;8.90;99.90;;;;;;4828381;29;20050;-91
2022/03/28 02:37:27;;;;;;;9.57;6.50;;;8.90;99.90;;;;;;4827589;29;20484;-91
2022/03/28 02:39:53;;;;;;;9.90;6.97;;;8.90;99.90;;;;;;4829786;29;20067;-92
2022/03/28 02:42:22;;;;;;;9.57;6.30;;;8.90;99.90;;;;;;4830763;29;20030;-92
2022/03/28 02:44:49;;;;;;;10.02;7.15;;;9.00;99.90;;;;;;4831163;29;20029;-92
2022/03/28 02:47:17;;;;;;;8.38;6.38;;;9.00;99.90;;;;;;4830949;29;20057;-92
2022/03/28 02:49:44;;;;;;;8.52;5.90;;;9.00;99.90;;;;;;4830556;29;20045;-91
2022/03/28 02:52:11;;;;;;;9.23;6.57;;;9.00;99.90;;;;;;4847208;29;20113;-92
2022/03/28 02:54:37;;;;;;;11.57;7.28;;;9.00;99.90;;;;;;4830959;29;20049;-92
2022/03/28 02:57:03;;;;;;;9.95;6.85;;;9.00;99.90;;;;;;4830826;29;20132;-90
2022/03/28 02:59:28;;;;;;;13.07;6.35;;;9.10;99.90;;;;;;4834386;29;20038;-91
2022/03/28 03:01:55;;;;;;;10.73;6.40;;;9.10;99.90;;;;;;4832137;29;20484;-91
2022/03/28 03:04:20;;;;;;;8.98;6.80;;;9.10;99.90;;;;;;4830686;29;20033;-90
2022/03/28 03:06:46;;;;;;;9.88;6.55;;;9.10;99.90;;;;;;4833465;29;20034;-90
2022/03/28 03:09:12;;;;;;;11.35;7.57;;;9.10;99.90;;;;;;4838114;29;20034;-91
2022/03/28 03:11:40;;;;;;;9.50;6.53;;;9.10;99.90;;;;;;4843063;29;20065;-91
2022/03/28 03:14:06;;;;;;;11.50;7.40;;;9.20;99.90;;;;;;4831740;29;20041;-90
2022/03/28 03:16:32;;;;;;;9.07;6.28;;;9.20;99.90;;;;;;4830318;29;20055;-90
2022/03/28 03:18:58;;;;;;;11.30;6.40;;;9.20;99.90;;;;;;4830295;29;20030;-91
2022/03/28 03:21:23;;;;;;;9.57;6.68;;;9.10;99.90;;;;;;4830242;29;20030;-91
2022/03/28 03:23:49;;;;;;;9.60;6.72;;;9.10;99.90;;;;;;4829826;29;20041;-90
2022/03/28 03:26:15;;;;;;;11.35;7.20;;;9.10;99.90;;;;;;4830160;29;20572;-92
2022/03/28 03:28:42;;;;;;;11.07;6.70;;;9.10;99.90;;;;;;4846400;29;20030;-91
2022/03/28 03:31:08;;;;;;;11.15;7.53;;;9.10;99.90;;;;;;4830961;29;20042;-90
2022/03/28 03:33:36;;;;;;;10.18;6.93;;;9.10;99.90;;;;;;4831610;29;20458;-89
2022/03/28 03:36:02;;;;;;;10.50;7.15;;;9.10;99.90;;;;;;4830533;29;20026;-90
2022/03/28 03:38:28;;;;;;;10.27;6.88;;;9.10;99.90;;;;;;4843600;29;20018;-90
2022/03/28 03:40:55;;;;;;;10.60;6.97;;;9.10;99.90;;;;;;4850719;29;20022;-90
2022/03/28 03:43:25;;;;;;;10.93;7.45;;;9.10;99.90;;;;;;4844307;29;20029;-91
2022/03/28 03:45:51;;;;;;;10.02;6.60;;;9.10;99.90;;;;;;4838842;29;20033;-90
2022/03/28 03:48:18;;;;;;;11.07;7.53;;;9.10;99.90;;;;;;4836963;29;20394;-90
2022/03/28 03:50:44;;;;;;;9.88;6.68;;;9.10;99.90;;;;;;4834052;29;20046;-91
2022/03/28 03:53:15;;;;;;;;;;;9.10;99.90;;;;;;4848035;29;20046;-91
2022/03/28 03:55:41;;;;;;;10.07;6.13;;;9.00;99.90;;;;;;4829247;29;19908;-90
2022/03/28 03:58:07;;;;;;;11.85;6.82;;;9.00;99.90;;;;;;4829231;29;20396;-90
2022/03/28 04:00:33;;;;;;;10.23;6.97;;;9.00;99.90;;;;;;4829636;29;20089;-90
2022/03/28 04:02:59;;;;;;;12.05;6.38;;;9.00;99.90;;;;;;4845979;29;20044;-91
2022/03/28 04:05:25;;;;;;;11.88;6.60;;;9.00;99.90;;;;;;4845876;29;20105;-91
2022/03/28 04:07:52;;;;;;;10.15;5.93;;;9.00;99.90;;;;;;4829412;29;20476;-90
2022/03/28 04:10:18;;;;;;;11.30;7.03;;;8.90;99.90;;;;;;4828682;29;20046;-90
2022/03/28 04:12:43;;;;;;;9.80;6.63;;;8.90;99.90;;;;;;4829358;29;20041;-91
2022/03/28 04:15:10;;;;;;;12.90;6.65;;;8.80;99.90;;;;;;4829576;29;20053;-90
2022/03/28 04:17:43;;;;;;;10.80;7.35;;;8.90;99.90;;;;;;4829486;29;20503;-90
2022/03/28 04:20:14;;;;;;;8.98;6.75;;;8.90;99.90;;;;;;4829783;29;20038;-90
2022/03/28 04:22:41;;;;;;;14.07;7.82;;;8.90;99.90;;;;;;4846159;29;20026;-91
2022/03/28 04:25:09;;;;;;;13.32;7.15;;;8.90;99.90;;;;;;4829809;29;20238;-91
2022/03/28 04:27:36;;;;;;;8.63;6.38;;;9.00;99.90;;;;;;4845795;29;20101;-91
2022/03/28 04:30:07;;;;;;;10.85;6.70;;;9.00;99.90;;;;;;4836158;29;20030;-91
2022/03/28 04:32:34;;;;;;;12.55;7.05;;;9.00;99.90;;;;;;4829218;29;20473;-91
2022/03/28 04:35:00;;;;;;;9.50;7.07;;;9.00;99.90;;;;;;4828421;29;20090;-91
2022/03/28 04:37:25;;;;;;;10.50;7.63;;;9.00;99.90;;;;;;4828460;29;20030;-92
2022/03/28 04:39:54;;;;;;;10.30;7.22;;;9.00;99.90;;;;;;4828595;29;20025;-91
2022/03/28 04:42:20;;;;;;;11.80;7.85;;;9.00;99.90;;;;;;4829145;29;20499;-92
2022/03/28 04:44:46;;;;;;;13.38;6.95;;;9.00;99.90;;;;;;4833444;29;20034;-92
2022/03/28 04:47:11;;;;;;;9.45;7.25;;;9.00;99.90;;;;;;4832594;29;20022;-91
2022/03/28 04:49:37;;;;;;;11.85;7.30;;;9.00;99.90;;;;;;4848639;29;20081;-91
2022/03/28 04:52:03;;;;;;;16.38;7.20;;;9.00;99.90;;;;;;4830207;29;20030;-90
2022/03/28 04:54:29;;;;;;;10.90;7.43;;;9.00;99.90;;;;;;4828427;29;20046;-91
2022/03/28 04:56:55;;;;;;;9.77;6.80;;;9.00;99.90;;;;;;4829468;29;20044;-92
2022/03/28 04:59:20;;;;;;;11.48;7.47;;;9.00;99.90;;;;;;4829157;29;20378;-92
2022/03/28 05:01:46;;;;;;;12.13;7.47;;;9.00;99.90;;;;;;4828452;29;20492;-92
2022/03/28 05:04:12;;;;;;;10.95;7.60;;;8.90;99.90;;;;;;4830044;29;20095;-93
2022/03/28 05:06:37;;;;;;;11.82;7.57;;;8.90;99.90;;;;;;4830679;29;20030;-91
2022/03/28 05:09:03;;;;;;;10.88;7.43;;;9.00;99.90;;;;;;4830516;29;20030;-90
2022/03/28 05:11:30;;;;;;;10.55;7.22;;;8.90;99.90;;;;;;4830547;29;20026;-90
2022/03/28 05:13:58;;;;;;;10.68;7.10;;;8.90;99.90;;;;;;4830545;29;20045;-90
2022/03/28 05:16:24;;;;;;;13.50;7.90;;;8.90;99.90;;;;;;4832432;29;20026;-92
2022/03/28 05:18:49;;;;;;;10.63;7.68;;;8.90;99.90;;;;;;4832043;29;20028;-92
2022/03/28 05:21:15;;;;;;;13.00;8.32;;;8.90;99.90;;;;;;4831818;29;20500;-92
2022/03/28 05:23:41;;;;;;;11.55;7.72;;;8.90;99.90;;;;;;4835881;29;20033;-90
2022/03/28 05:26:06;;;;;;;14.18;9.05;;;8.90;99.90;;;;;;4847420;29;20095;-90
2022/03/28 05:28:32;;;;;;;12.55;8.55;;;8.90;99.90;;;;;;4849182;29;20014;-91
2022/03/28 05:30:58;;;;;;;11.25;8.30;;;8.90;99.90;;;;;;4849439;29;20025;-92
2022/03/28 05:33:24;;;;;;;11.82;7.88;;;8.90;99.90;;;;;;4845725;29;20091;-93
2022/03/28 05:35:51;;;;;;;13.77;9.35;;;8.90;99.90;;;;;;4835267;29;20030;-93
2022/03/28 05:38:19;;;;;;;11.40;8.70;;;9.00;99.90;;;;;;4832661;29;20033;-93
2022/03/28 05:40:45;;;;;;;13.13;8.85;;;9.00;99.90;;;;;;4832701;29;20029;-92
2022/03/28 05:43:11;;;;;;;13.40;9.45;;;9.00;99.90;;;;;;4831041;29;20044;-92
2022/03/28 05:45:37;;;;;;;12.95;9.07;;;9.00;99.90;;;;;;4831191;29;20034;-92
2022/03/28 05:48:03;;;;;;;13.98;9.52;;;9.00;99.90;;;;;;4830547;29;20045;-91
2022/03/28 05:50:29;;;;;;;13.50;9.07;;;9.00;99.90;;;;;;4829492;29;20053;-93
2022/03/28 05:52:55;;;;;;;10.30;7.95;;;8.90;99.90;;;;;;4830299;29;20034;-90
2022/03/28 05:55:21;;;;;;;14.60;9.35;;;8.90;99.90;;;;;;4829881;29;20058;-90
2022/03/28 05:57:47;;;;;;;14.40;8.98;;;8.90;99.90;;;;;;4843521;29;20094;-90
2022/03/28 06:00:14;;;;;;;12.85;9.48;;;8.90;99.90;;;;;;4845460;29;20044;-91
2022/03/28 06:02:43;;;;;;;17.00;10.40;;;8.90;99.90;;;;;;4834792;29;20053;-89
2022/03/28 06:05:11;;;;;;;13.05;9.07;;;8.90;99.90;;;;;;4841426;29;20086;-92
2022/03/28 06:07:37;;;;;;;15.13;9.52;;;8.90;99.90;;;;;;4831418;29;20041;-90
2022/03/28 06:10:04;;;;;;;14.32;8.90;;;8.90;99.90;;;;;;4831163;29;20030;-92
2022/03/28 06:12:30;;;;;;;15.70;9.90;;;8.80;99.90;;;;;;4830131;29;20053;-92
2022/03/28 06:14:56;;;;;;;15.18;9.60;;;8.80;99.90;;;;;;4833224;29;20063;-91
2022/03/28 06:17:24;;;;;;;17.85;10.25;;;8.80;99.90;;;;;;4832356;29;20133;-90
2022/03/28 06:19:50;;;;;;;16.38;9.30;;;8.80;99.90;;;;;;4831942;29;20113;-91
2022/03/28 06:22:16;;;;;;;12.85;8.65;;;8.80;99.90;;;;;;4831424;29;20037;-92
2022/03/28 06:24:42;;;;;;;20.73;9.93;;;8.80;99.90;;;;;;4831204;29;20029;-93
2022/03/28 06:27:08;;;;;;;14.30;9.50;;;8.80;99.90;;;;;;4831507;29;20041;-91
2022/03/28 06:29:35;;;;;;;15.80;9.43;;;8.90;99.90;;;;;;4833053;29;20018;-91
2022/03/28 06:32:01;;;;;;;16.27;10.80;;;8.80;99.90;;;;;;4838637;29;20033;-91
2022/03/28 06:34:27;;;;;;;16.73;11.15;;;8.90;99.90;;;;;;4824667;29;20105;-91
2022/03/28 06:36:54;;;;;;;18.38;11.32;;;8.90;99.90;;;;;;4839586;29;20063;-91
2022/03/28 06:39:20;;;;;;;20.95;12.23;;;8.90;99.90;;;;;;4855891;29;20062;-90
2022/03/28 06:41:46;;;;;;;16.17;10.00;;;8.90;99.90;;;;;;4839748;29;20034;-92
2022/03/28 06:44:11;;;;;;;18.00;9.88;;;9.00;99.90;;;;;;4853599;29;20616;-92
2022/03/28 06:46:44;;;;;;;16.10;9.57;;;8.90;99.90;;;;;;4849521;29;20026;-91
2022/03/28 06:49:13;;;;;;;13.85;8.93;;;8.90;99.90;;;;;;4848411;29;20121;-91
2022/03/28 06:51:39;;;;;;;15.95;8.98;;;9.00;99.90;;;;;;4847281;29;20066;-91
2022/03/28 06:54:07;;;;;;;16.10;9.02;;;9.00;99.90;;;;;;4847913;29;20500;-91
2022/03/28 06:56:33;;;;;;;16.95;9.48;;;9.10;99.90;;;;;;4845753;29;20032;-92
2022/03/28 06:58:58;;;;;;;13.02;8.95;;;9.10;99.90;;;;;;4846310;29;20468;-91
2022/03/28 07:01:25;;;;;;;12.02;7.93;;;9.10;99.90;;;;;;4844009;29;20030;-91
2022/03/28 07:03:50;;;;;;;14.75;9.88;;;9.20;99.90;;;;;;4838720;29;20038;-91
2022/03/28 07:06:16;;;;;;;12.40;9.00;;;9.20;99.90;;;;;;4837292;29;20369;-91
2022/03/28 07:08:42;;;;;;;14.38;9.65;;;9.30;99.90;;;;;;4835751;29;20077;-91
2022/03/28 07:11:07;;;;;;;14.07;8.88;;;9.30;99.90;;;;;;4831859;29;20030;-93
2022/03/28 07:13:33;;;;;;;14.48;8.52;;;9.30;99.90;;;;;;4831755;29;20034;-92
2022/03/28 07:15:59;;;;;;;14.07;9.48;;;9.40;99.90;;;;;;4831989;29;20497;-91
2022/03/28 07:18:25;;;;;;;16.17;9.80;;;9.40;99.90;;;;;;4831356;29;20034;-90
2022/03/28 07:20:51;;;;;;;12.93;9.20;;;9.40;99.90;;;;;;4833158;29;20030;-92
2022/03/28 07:23:18;;;;;;;16.85;10.43;;;9.40;99.90;;;;;;4831251;29;20069;-90
2022/03/28 07:25:45;;;;;;;14.70;10.20;;;9.50;99.90;;;;;;4831497;29;20042;-91
2022/03/28 07:28:12;;;;;;;17.77;11.93;;;9.50;99.90;;;;;;4832136;29;20053;-90
2022/03/28 07:30:40;;;;;;;16.90;11.10;;;9.50;99.90;;;;;;4824166;29;20117;-91
2022/03/28 07:33:07;;;;;;;26.92;14.82;;;9.60;99.90;;;;;;4831352;29;20132;-92
2022/03/28 07:35:37;;;;;;;21.65;11.25;;;9.60;99.90;;;;;;4832400;29;20530;-93
2022/03/28 07:38:07;;;;;;;17.80;11.32;;;9.60;99.90;;;;;;4832212;29;20041;-94
2022/03/28 07:40:37;;;;;;;22.67;13.83;;;9.60;99.90;;;;;;4831838;29;20495;-92
2022/03/28 07:43:03;;;;;;;29.20;17.80;;;9.70;99.90;;;;;;4831534;29;20042;-93
2022/03/28 07:45:29;;;;;;;17.83;11.80;;;9.70;99.90;;;;;;4831597;29;20022;-92
2022/03/28 07:47:55;;;;;;;18.65;12.73;;;9.80;99.90;;;;;;4830991;29;20076;-94
2022/03/28 07:50:21;;;;;;;20.23;11.80;;;9.70;99.90;;;;;;4830905;29;20054;-95
2022/03/28 07:52:46;;;;;;;20.65;12.88;;;9.80;99.90;;;;;;4829235;29;20069;-94
2022/03/28 07:55:13;;;;;;;18.95;12.65;;;9.80;99.90;;;;;;4832550;29;20041;-95
2022/03/28 07:57:39;;;;;;;19.60;13.18;;;9.80;99.90;;;;;;4833636;29;20025;-96
2022/03/28 08:00:12;;;;;;;21.75;13.20;;;9.90;99.90;;;;;;4833947;29;20030;-92
2022/03/28 08:02:38;;;;;;;22.92;15.07;;;10.00;99.90;;;;;;4840761;29;20055;-95
2022/03/28 08:05:05;;;;;;;24.05;14.95;;;10.00;99.90;;;;;;4854262;29;20022;-94
2022/03/28 08:07:31;;;;;;;27.90;16.40;;;10.10;99.90;;;;;;4843365;29;20026;-94
2022/03/28 08:09:57;;;;;;;28.50;16.52;;;10.20;99.90;;;;;;4845345;29;20065;-93
2022/03/28 08:12:23;;;;;;;29.45;17.70;;;10.20;99.90;;;;;;4847430;29;20022;-95
2022/03/28 08:14:49;;;;;;;29.17;16.10;;;10.30;99.90;;;;;;4846511;29;20045;-94
2022/03/28 08:17:18;;;;;;;36.33;20.48;;;10.30;99.90;;;;;;4844185;29;20209;-94
2022/03/28 08:19:43;;;;;;;43.95;22.33;;;10.40;99.90;;;;;;4842863;29;20034;-94
2022/03/28 08:22:09;;;;;;;41.30;23.15;;;10.50;99.90;;;;;;4843930;29;20054;-94
2022/03/28 08:24:35;;;;;;;38.47;22.23;;;10.50;99.90;;;;;;4844178;29;20045;-96
2022/03/28 08:27:01;;;;;;;40.50;21.13;;;10.60;99.90;;;;;;4844561;29;20520;-93
2022/03/28 08:29:27;;;;;;;36.88;20.73;;;10.70;99.90;;;;;;4860515;29;20030;-94
2022/03/28 08:34:22;;;;;;;36.78;21.20;;;10.90;99.90;;;;;;4871681;24;20054;-95
2022/03/28 08:36:49;;;;;;;41.47;23.08;;;10.90;99.90;;;;;;4841210;29;20046;-95
2022/03/28 08:39:17;;;;;;;39.72;21.20;;;11.00;99.90;;;;;;4830689;29;20038;-95
2022/03/28 08:41:46;;;;;;;37.25;21.92;;;11.00;99.90;;;;;;4810140;29;20026;-94
2022/03/28 08:44:12;;;;;;;40.95;24.17;;;11.10;99.90;;;;;;4830636;29;20033;-94
2022/03/28 08:46:41;;;;;;;43.90;23.85;;;11.10;99.90;;;;;;4799987;29;20030;-94
2022/03/28 08:49:07;;;;;;;43.30;23.77;;;11.10;99.90;;;;;;4802735;29;20026;-93
2022/03/28 08:51:34;;;;;;;47.72;24.48;;;11.10;99.90;;;;;;4801216;29;20034;-93
2022/03/28 08:54:00;;;;;;;49.78;25.65;;;11.20;99.90;;;;;;4796826;29;20054;-93
2022/03/28 08:56:26;;;;;;;43.47;23.35;;;11.20;99.90;;;;;;4801726;29;20069;-93
2022/03/28 08:58:51;;;;;;;40.53;23.70;;;11.30;99.90;;;;;;4803425;29;20034;-92
2022/03/28 09:01:20;;;;;;;39.78;22.65;;;11.40;99.90;;;;;;4802796;29;20410;-94
2022/03/28 09:03:47;;;;;;;40.70;23.85;;;11.50;99.90;;;;;;4802071;29;20023;-93
2022/03/28 09:06:29;;;;;;;38.63;21.52;;;11.60;99.90;;;;;;4809395;29;20509;-94
2022/03/28 09:09:21;;;;;;;40.22;22.77;;;11.70;99.90;;;;;;4793310;29;20051;-93
2022/03/28 09:11:51;;;;;;;;;;;11.70;99.90;;;;;;4785509;29;20680;-94
2022/03/28 09:14:26;;;;;;;43.97;21.08;;;11.80;99.90;;;;;;4803367;29;19928;-94
2022/03/28 09:17:06;;;;;;;40.97;21.30;;;11.90;99.90;;;;;;4813895;29;20092;-93
2022/03/28 09:19:50;;;;;;;39.90;22.60;;;11.90;99.90;;;;;;4822383;29;20074;-93
2022/03/28 09:22:19;;;;;;;39.25;20.85;;;12.00;99.90;;;;;;4827735;29;20027;-94
2022/03/28 09:24:57;;;;;;;39.65;22.05;;;12.00;99.90;;;;;;4818955;29;20061;-93
2022/03/28 09:27:28;;;;;;;39.88;22.52;;;12.10;99.90;;;;;;4811440;29;20111;-92
2022/03/28 09:30:03;;;;;;;40.78;21.02;;;12.20;99.90;;;;;;4843472;29;20031;-94
2022/03/28 09:32:34;;;;;;;39.13;21.30;;;12.30;99.90;;;;;;4840159;29;20050;-94
2022/03/28 09:35:10;;;;;;;37.38;20.80;;;12.30;99.90;;;;;;4801382;29;20030;-94
2022/03/28 09:38:08;;;;;;;39.42;21.25;;;12.40;99.90;;;;;;4836536;29;20030;-94
2022/03/28 09:40:42;;;;;;;37.63;20.40;;;12.60;99.90;;;;;;4790039;29;20034;-94
2022/03/28 09:43:30;;;;;;;37.88;21.05;;;12.60;99.90;;;;;;4814532;29;20118;-94
2022/03/28 09:45:58;;;;;;;38.20;21.42;;;12.70;99.90;;;;;;4815360;29;20038;-95
2022/03/28 10:10:59;;;;;;;34.75;19.70;;;14.40;97.30;;;;;;5016826;24;20061;-94
2022/03/28 10:13:29;;;;;;;32.88;19.42;;;14.50;96.10;;;;;;4818727;29;20038;-96
2022/03/28 10:15:57;;;;;;;32.83;19.23;;;14.60;95.30;;;;;;4838475;29;20126;-93
2022/03/28 10:18:22;;;;;;;31.65;19.27;;;14.50;94.40;;;;;;4833634;29;20033;-90
2022/03/28 10:20:54;;;;;;;34.10;19.83;;;14.60;94.30;;;;;;4832181;29;20030;-93
2022/03/28 10:23:23;;;;;;;33.92;20.60;;;14.60;94.10;;;;;;4826513;29;20026;-93
2022/03/28 10:25:52;;;;;;;45.72;19.95;;;14.70;93.90;;;;;;4817825;29;20042;-96
2022/03/28 10:28:21;;;;;;;34.25;20.10;;;14.80;93.50;;;;;;4825574;29;20022;-94
2022/03/28 10:30:47;;;;;;;30.58;18.95;;;14.90;93.10;;;;;;4827285;29;20067;-94
2022/03/28 10:33:28;;;;;;;35.67;19.55;;;15.00;92.50;;;;;;4815750;29;20113;-95
2022/03/28 10:36:21;;;;;;;33.85;19.98;;;15.10;92.10;;;;;;4827257;29;20469;-94
2022/03/28 11:59:11;;;;;;;30.45;16.33;;;16.60;77.30;;;;;;5115032;23;20079;-94
2022/03/28 12:01:37;;;;;;;27.77;15.88;;;16.90;77.10;;;;;;4797999;29;20134;-94
2022/03/28 12:04:04;;;;;;;24.23;15.90;;;17.10;76.40;;;;;;4829701;29;20102;-95
2022/03/28 12:06:32;;;;;;;26.02;14.50;;;17.30;76.00;;;;;;4818644;29;20027;-95
2022/03/28 12:08:58;;;;;;;24.30;15.32;;;17.30;74.50;;;;;;4815284;29;20035;-95
2022/03/28 12:11:27;;;;;;;26.40;15.15;;;17.20;74.30;;;;;;4819833;29;20217;-96
2022/03/28 12:13:53;;;;;;;22.67;15.30;;;17.40;74.60;;;;;;4811461;29;20058;-96
2022/03/28 12:16:21;;;;;;;23.83;15.18;;;17.80;74.20;;;;;;4827224;29;20030;-95
2022/03/28 12:18:48;;;;;;;26.60;14.02;;;18.20;73.20;;;;;;4824198;29;20054;-94
2022/03/28 12:21:14;;;;;;;24.55;14.68;;;18.50;72.20;;;;;;4846732;29;20030;-93
2022/03/28 12:23:39;;;;;;;21.35;13.30;;;18.50;70.90;;;;;;4821673;29;20510;-93
2022/03/28 12:26:05;;;;;;;21.77;12.55;;;18.20;69.70;;;;;;4820789;29;20037;-95
2022/03/28 12:28:38;;;;;;;25.42;14.93;;;17.90;70.10;;;;;;4825875;29;20036;-95
2022/03/28 12:31:07;;;;;;;21.27;12.73;;;17.70;70.60;;;;;;4819363;29;20488;-94
2022/03/28 12:33:35;;;;;;;23.50;13.77;;;17.60;70.90;;;;;;4820042;29;20034;-95
2022/03/28 12:36:12;;;;;;;21.20;12.65;;;17.50;70.90;;;;;;4819551;29;20109;-94
2022/03/28 12:38:45;;;;;;;21.30;12.82;;;17.60;71.20;;;;;;4816722;29;20022;-94
2022/03/28 12:41:12;;;;;;;21.23;13.85;;;18.10;70.90;;;;;;4817273;29;20022;-95
2022/03/28 12:43:46;;;;;;;19.17;12.15;;;18.60;69.80;;;;;;4820793;29;20496;-96
2022/03/28 12:46:15;;;;;;;22.27;12.52;;;19.10;68.80;;;;;;4819315;29;20029;-95
2022/03/28 12:48:59;;;;;;;18.83;10.40;;;19.70;67.70;;;;;;4834466;29;20061;-94
2022/03/28 12:51:30;;;;;;;21.48;11.98;;;20.10;66.00;;;;;;4822099;29;20026;-94
2022/03/28 12:54:21;;;;;;;19.25;11.73;;;20.40;64.00;;;;;;4823183;29;20038;-95
2022/03/28 12:56:58;;;;;;;18.20;10.50;;;20.30;62.30;;;;;;4830996;29;20050;-96
2022/03/28 13:40:54;;;;;;;15.40;8.85;;;19.80;61.00;;;;;;4880404;29;20052;-96
2022/03/28 13:43:28;;;;;;;19.17;9.35;;;20.10;60.20;;;;;;4865545;29;20046;-95
2022/03/28 13:45:53;;;;;;;16.75;9.70;;;20.40;59.40;;;;;;4866907;29;20067;-93
2022/03/28 13:48:22;;;;;;;18.88;9.40;;;20.60;58.70;;;;;;4861015;29;20034;-96
2022/03/28 13:50:49;;;;;;;16.75;9.38;;;20.70;57.60;;;;;;4867362;29;20044;-95
2022/03/28 13:53:15;;;;;;;14.50;9.52;;;20.90;57.50;;;;;;4885506;29;20102;-95
2022/03/28 13:55:42;;;;;;;13.25;8.52;;;21.10;56.60;;;;;;4869800;29;20049;-96
2022/03/28 13:58:09;;;;;;;16.00;9.82;;;21.40;56.20;;;;;;4873717;29;20036;-96
2022/03/28 14:00:35;;;;;;;20.55;10.00;;;21.50;55.80;;;;;;4874905;29;20119;-95
2022/03/28 14:03:02;;;;;;;14.90;8.88;;;21.60;55.40;;;;;;4879746;29;20029;-96
2022/03/28 14:05:31;;;;;;;18.63;10.32;;;21.80;55.00;;;;;;4870496;29;20017;-95
2022/03/28 14:08:00;;;;;;;15.40;8.95;;;21.90;54.60;;;;;;4864158;29;20033;-96
2022/03/28 14:27:37;;;;;;;14.60;9.18;;;22.20;52.80;;;;;;4933388;23;20066;-96
2022/03/28 14:30:13;;;;;;;15.48;9.40;;;22.20;52.20;;;;;;4864327;29;20034;-96
2022/03/28 15:12:15;;;;;;;16.80;9.73;;;22.30;51.40;;;;;;4869369;29;19934;-95
2022/03/28 15:14:40;;;;;;;23.75;11.35;;;22.10;51.20;;;;;;4851092;29;20132;-92
2022/03/28 15:17:07;;;;;;;19.48;10.75;;;21.90;51.70;;;;;;4855893;29;20047;-93
2022/03/28 15:19:33;;;;;;;18.73;10.00;;;22.00;52.10;;;;;;4862235;29;20399;-95
2022/03/28 15:22:03;;;;;;;18.50;10.75;;;22.00;52.00;;;;;;4867717;29;20029;-95
2022/03/28 15:24:30;;;;;;;18.02;10.05;;;21.90;52.00;;;;;;4870719;29;20120;-96
2022/03/28 15:26:56;;;;;;;16.08;9.73;;;21.90;52.20;;;;;;4866423;29;20120;-94
2022/03/28 15:29:23;;;;;;;15.45;10.18;;;22.00;52.00;;;;;;4868939;29;20061;-95
2022/03/28 15:31:49;;;;;;;21.60;11.43;;;21.90;51.70;;;;;;4867335;29;20126;-94
2022/03/28 15:34:16;;;;;;;14.38;9.48;;;21.90;51.70;;;;;;4868495;29;20032;-95
2022/03/28 15:36:48;;;;;;;17.48;10.38;;;22.00;51.90;;;;;;4868524;29;20057;-96
2022/03/28 15:39:26;;;;;;;17.70;10.85;;;22.10;51.90;;;;;;4869297;29;20033;-96
2022/03/28 15:41:53;;;;;;;15.20;8.95;;;22.20;51.50;;;;;;4872919;29;20128;-96
2022/03/28 15:44:20;;;;;;;19.55;11.25;;;22.10;51.40;;;;;;4875464;29;20029;-96
2022/03/28 15:46:46;;;;;;;16.95;11.13;;;22.00;51.60;;;;;;4869134;29;20476;-96
2022/03/28 15:49:15;;;;;;;17.88;10.63;;;22.00;51.70;;;;;;4868206;29;20495;-96
2022/03/28 15:51:44;;;;;;;17.67;9.57;;;22.10;51.70;;;;;;4872570;29;20093;-96
2022/03/28 15:54:10;;;;;;;16.52;9.35;;;22.20;51.40;;;;;;4870411;29;20064;-96
2022/03/28 15:56:37;;;;;;;24.20;10.02;;;22.30;51.10;;;;;;4869840;29;20125;-95
2022/03/28 15:59:05;;;;;;;18.15;10.82;;;22.20;51.20;;;;;;4868483;29;20029;-94
2022/03/28 16:01:39;;;;;;;19.40;10.48;;;22.10;51.00;;;;;;4874053;29;20120;-96
2022/03/28 16:04:07;;;;;;;21.35;11.40;;;21.90;51.00;;;;;;4874364;29;20025;-96
2022/03/28 16:06:36;;;;;;;17.20;10.20;;;21.90;51.20;;;;;;4876079;29;20029;-96